sensor_id;sensor_type;location;lat;lon;timestamp;pressure;altitude;pressure_sealevel;temperature;humidity
61136;BME280;47021;51.340;12.432;2023-03-04T00:00:10;100691.22;;;5.46;64.20
61136;BME280;47021;51.340;12.432;2023-03-04T00:02:50;100677.38;;;5.14;65.19
61136;BME280;47021;51.340;12.432;2023-03-04T00:05:16;100674.31;;;5.71;63.58
61136;BME280;47021;51.340;12.432;2023-03-04T00:07:41;100677.13;;;5.51;63.69
61136;BME280;47021;51.340;12.432;2023-03-04T00:10:13;100675.94;;;5.41;64.18
61136;BME280;47021;51.340;12.432;2023-03-04T00:12:52;100678.31;;;5.13;65.09
61136;BME280;47021;51.340;12.432;2023-03-04T00:15:25;100680.09;;;5.28;64.64
61136;BME280;47021;51.340;12.432;2023-03-04T00:17:52;100675.31;;;5.53;64.44
61136;BME280;47021;51.340;12.432;2023-03-04T00:20:19;100674.81;;;5.14;64.86
61136;BME280;47021;51.340;12.432;2023-03-04T00:22:44;100673.91;;;4.98;65.76
61136;BME280;47021;51.340;12.432;2023-03-04T00:25:10;100680.38;;;5.07;66.03
61136;BME280;47021;51.340;12.432;2023-03-04T00:27:37;100682.28;;;4.86;66.24
61136;BME280;47021;51.340;12.432;2023-03-04T00:30:02;100678.19;;;5.32;65.48
61136;BME280;47021;51.340;12.432;2023-03-04T00:32:33;100675.13;;;5.08;65.85
61136;BME280;47021;51.340;12.432;2023-03-04T00:35:05;100670.00;;;5.07;66.09
61136;BME280;47021;51.340;12.432;2023-03-04T00:40:06;100671.28;;;4.82;67.28
61136;BME280;47021;51.340;12.432;2023-03-04T00:42:32;100678.25;;;4.97;66.62
61136;BME280;47021;51.340;12.432;2023-03-04T00:44:57;100677.38;;;5.14;66.70
61136;BME280;47021;51.340;12.432;2023-03-04T00:47:30;100676.84;;;4.75;67.51
61136;BME280;47021;51.340;12.432;2023-03-04T00:49:57;100673.78;;;4.84;67.49
61136;BME280;47021;51.340;12.432;2023-03-04T00:52:22;100669.97;;;4.91;67.54
61136;BME280;47021;51.340;12.432;2023-03-04T00:54:53;100655.91;;;4.96;67.57
61136;BME280;47021;51.340;12.432;2023-03-04T00:57:21;100665.19;;;5.16;66.61
61136;BME280;47021;51.340;12.432;2023-03-04T00:59:47;100670.44;;;4.82;67.62
61136;BME280;47021;51.340;12.432;2023-03-04T01:03:52;100687.47;;;4.35;69.89
61136;BME280;47021;51.340;12.432;2023-03-04T01:06:23;100671.66;;;4.41;69.64
61136;BME280;47021;51.340;12.432;2023-03-04T01:08:51;100681.59;;;4.31;68.85
61136;BME280;47021;51.340;12.432;2023-03-04T01:11:16;100680.16;;;4.25;69.78
61136;BME280;47021;51.340;12.432;2023-03-04T01:13:41;100676.31;;;4.68;68.23
61136;BME280;47021;51.340;12.432;2023-03-04T01:16:08;100673.34;;;4.42;68.81
61136;BME280;47021;51.340;12.432;2023-03-04T01:18:35;100662.53;;;4.68;67.62
61136;BME280;47021;51.340;12.432;2023-03-04T01:21:00;100651.44;;;4.83;67.00
61136;BME280;47021;51.340;12.432;2023-03-04T01:23:31;100649.63;;;5.00;67.22
61136;BME280;47021;51.340;12.432;2023-03-04T01:25:57;100636.09;;;4.95;66.72
61136;BME280;47021;51.340;12.432;2023-03-04T01:28:23;100635.25;;;4.62;67.46
61136;BME280;47021;51.340;12.432;2023-03-04T01:30:48;100628.47;;;5.10;66.15
61136;BME280;47021;51.340;12.432;2023-03-04T01:33:19;100620.44;;;5.14;65.88
61136;BME280;47021;51.340;12.432;2023-03-04T01:38:28;100614.38;;;5.15;65.65
61136;BME280;47021;51.340;12.432;2023-03-04T01:40:54;100613.41;;;5.33;64.46
61136;BME280;47021;51.340;12.432;2023-03-04T01:43:24;100611.75;;;4.99;65.71
61136;BME280;47021;51.340;12.432;2023-03-04T01:45:51;100609.91;;;4.69;66.64
61136;BME280;47021;51.340;12.432;2023-03-04T01:48:21;100599.75;;;5.14;65.47
61136;BME280;47021;51.340;12.432;2023-03-04T01:50:49;100598.41;;;5.07;65.09
61136;BME280;47021;51.340;12.432;2023-03-04T01:53:25;100586.41;;;5.37;64.55
61136;BME280;47021;51.340;12.432;2023-03-04T01:58:36;100575.31;;;5.20;64.55
61136;BME280;47021;51.340;12.432;2023-03-04T02:01:09;100583.56;;;4.78;65.80
61136;BME280;47021;51.340;12.432;2023-03-04T02:03:36;100574.63;;;5.16;65.41
61136;BME280;47021;51.340;12.432;2023-03-04T02:06:09;100573.47;;;5.22;64.66
61136;BME280;47021;51.340;12.432;2023-03-04T02:08:41;100575.19;;;5.06;65.17
61136;BME280;47021;51.340;12.432;2023-03-04T02:11:12;100577.69;;;5.07;65.24
61136;BME280;47021;51.340;12.432;2023-03-04T02:13:53;100585.53;;;4.90;65.24
61136;BME280;47021;51.340;12.432;2023-03-04T02:16:21;100580.72;;;4.67;66.35
61136;BME280;47021;51.340;12.432;2023-03-04T02:18:47;100591.22;;;4.29;67.66
61136;BME280;47021;51.340;12.432;2023-03-04T02:21:29;100585.75;;;4.53;67.33
61136;BME280;47021;51.340;12.432;2023-03-04T02:26:40;100578.97;;;5.16;65.49
61136;BME280;47021;51.340;12.432;2023-03-04T02:29:07;100567.84;;;4.98;65.38
61136;BME280;47021;51.340;12.432;2023-03-04T02:31:34;100573.28;;;5.09;65.50
61136;BME280;47021;51.340;12.432;2023-03-04T02:34:03;100568.19;;;5.39;64.17
61136;BME280;47021;51.340;12.432;2023-03-04T02:36:33;100570.31;;;4.84;66.19
61136;BME280;47021;51.340;12.432;2023-03-04T02:41:42;100558.41;;;4.97;65.08
61136;BME280;47021;51.340;12.432;2023-03-04T02:44:18;100561.78;;;4.82;65.90
61136;BME280;47021;51.340;12.432;2023-03-04T02:46:46;100556.22;;;4.89;66.27
61136;BME280;47021;51.340;12.432;2023-03-04T02:49:18;100551.00;;;5.22;65.16
61136;BME280;47021;51.340;12.432;2023-03-04T02:51:44;100541.13;;;5.60;63.88
61136;BME280;47021;51.340;12.432;2023-03-04T02:54:22;100542.97;;;5.58;63.61
61136;BME280;47021;51.340;12.432;2023-03-04T02:56:50;100533.13;;;5.49;63.51
61136;BME280;47021;51.340;12.432;2023-03-04T02:59:16;100540.28;;;5.59;63.79
61136;BME280;47021;51.340;12.432;2023-03-04T03:01:41;100529.56;;;5.81;63.01
61136;BME280;47021;51.340;12.432;2023-03-04T03:04:07;100531.25;;;5.66;63.51
61136;BME280;47021;51.340;12.432;2023-03-04T03:06:32;100526.47;;;5.90;62.84
61136;BME280;47021;51.340;12.432;2023-03-04T03:08:57;100523.44;;;5.98;62.53
61136;BME280;47021;51.340;12.432;2023-03-04T03:11:22;100528.22;;;5.74;63.16
61136;BME280;47021;51.340;12.432;2023-03-04T03:16:16;100534.78;;;5.34;64.59
61136;BME280;47021;51.340;12.432;2023-03-04T03:18:42;100530.53;;;5.49;63.94
61136;BME280;47021;51.340;12.432;2023-03-04T03:21:13;100535.97;;;5.13;65.31
61136;BME280;47021;51.340;12.432;2023-03-04T03:23:39;100543.00;;;5.42;64.35
61136;BME280;47021;51.340;12.432;2023-03-04T03:26:06;100531.44;;;4.85;66.16
61136;BME280;47021;51.340;12.432;2023-03-04T03:28:31;100530.88;;;4.96;65.48
61136;BME280;47021;51.340;12.432;2023-03-04T03:33:25;100530.03;;;5.42;64.25
61136;BME280;47021;51.340;12.432;2023-03-04T03:35:50;100525.94;;;5.54;63.83
61136;BME280;47021;51.340;12.432;2023-03-04T03:38:17;100525.44;;;4.85;65.30
61136;BME280;47021;51.340;12.432;2023-03-04T03:43:32;100521.75;;;5.51;64.75
61136;BME280;47021;51.340;12.432;2023-03-04T03:45:57;100513.13;;;5.66;63.88
61136;BME280;47021;51.340;12.432;2023-03-04T03:48:23;100514.00;;;5.51;63.80
61136;BME280;47021;51.340;12.432;2023-03-04T03:50:49;100519.44;;;5.31;65.13
61136;BME280;47021;51.340;12.432;2023-03-04T03:53:14;100523.44;;;5.37;64.72
61136;BME280;47021;51.340;12.432;2023-03-04T03:55:41;100515.63;;;5.52;64.36
61136;BME280;47021;51.340;12.432;2023-03-04T03:58:07;100514.16;;;5.48;64.41
61136;BME280;47021;51.340;12.432;2023-03-04T04:00:38;100515.25;;;5.90;63.28
61136;BME280;47021;51.340;12.432;2023-03-04T04:03:03;100511.69;;;5.77;63.34
61136;BME280;47021;51.340;12.432;2023-03-04T04:05:30;100517.03;;;5.73;63.37
61136;BME280;47021;51.340;12.432;2023-03-04T04:07:57;100512.53;;;5.77;63.49
61136;BME280;47021;51.340;12.432;2023-03-04T04:10:23;100507.34;;;5.77;63.48
61136;BME280;47021;51.340;12.432;2023-03-04T04:12:54;100512.31;;;5.80;63.05
61136;BME280;47021;51.340;12.432;2023-03-04T04:15:19;100501.34;;;6.06;62.92
61136;BME280;47021;51.340;12.432;2023-03-04T04:17:46;100494.31;;;6.08;62.49
61136;BME280;47021;51.340;12.432;2023-03-04T04:20:19;100509.09;;;5.77;62.77
61136;BME280;47021;51.340;12.432;2023-03-04T04:22:44;100502.69;;;6.27;61.89
61136;BME280;47021;51.340;12.432;2023-03-04T04:25:10;100498.72;;;5.92;62.92
61136;BME280;47021;51.340;12.432;2023-03-04T04:27:37;100500.03;;;5.99;62.89
61136;BME280;47021;51.340;12.432;2023-03-04T04:30:17;100506.94;;;5.69;63.26
61136;BME280;47021;51.340;12.432;2023-03-04T04:32:44;100497.81;;;5.93;63.18
61136;BME280;47021;51.340;12.432;2023-03-04T04:35:17;100503.13;;;6.20;61.90
61136;BME280;47021;51.340;12.432;2023-03-04T04:37:42;100499.16;;;6.43;61.22
61136;BME280;47021;51.340;12.432;2023-03-04T04:40:08;100494.44;;;6.49;60.97
61136;BME280;47021;51.340;12.432;2023-03-04T04:42:34;100494.16;;;6.39;60.90
61136;BME280;47021;51.340;12.432;2023-03-04T04:45:00;100495.84;;;6.55;61.49
61136;BME280;47021;51.340;12.432;2023-03-04T04:47:28;100495.00;;;6.54;61.03
61136;BME280;47021;51.340;12.432;2023-03-04T04:49:55;100497.69;;;6.53;61.13
61136;BME280;47021;51.340;12.432;2023-03-04T04:52:21;100499.06;;;6.44;61.47
61136;BME280;47021;51.340;12.432;2023-03-04T04:54:46;100488.22;;;6.66;60.60
61136;BME280;47021;51.340;12.432;2023-03-04T04:57:13;100485.06;;;6.61;61.22
61136;BME280;47021;51.340;12.432;2023-03-04T04:59:38;100487.50;;;6.50;61.46
61136;BME280;47021;51.340;12.432;2023-03-04T05:02:03;100486.16;;;6.14;61.96
61136;BME280;47021;51.340;12.432;2023-03-04T05:04:29;100493.13;;;6.42;61.51
61136;BME280;47021;51.340;12.432;2023-03-04T05:06:54;100487.75;;;6.31;61.96
61136;BME280;47021;51.340;12.432;2023-03-04T05:09:26;100488.81;;;5.99;62.79
61136;BME280;47021;51.340;12.432;2023-03-04T05:11:53;100480.53;;;6.22;62.22
61136;BME280;47021;51.340;12.432;2023-03-04T05:14:20;100484.88;;;6.21;62.28
61136;BME280;47021;51.340;12.432;2023-03-04T05:16:47;100477.84;;;6.09;62.86
61136;BME280;47021;51.340;12.432;2023-03-04T05:19:20;100483.56;;;6.00;63.09
61136;BME280;47021;51.340;12.432;2023-03-04T05:41:22;100466.22;;;6.01;62.73
61136;BME280;47021;51.340;12.432;2023-03-04T05:43:48;100465.72;;;6.38;62.19
61136;BME280;47021;51.340;12.432;2023-03-04T05:46:14;100455.72;;;6.32;61.61
61136;BME280;47021;51.340;12.432;2023-03-04T05:48:54;100451.84;;;6.39;61.44
61136;BME280;47021;51.340;12.432;2023-03-04T05:51:21;100454.91;;;6.46;61.61
61136;BME280;47021;51.340;12.432;2023-03-04T05:53:47;100456.75;;;6.44;61.10
61136;BME280;47021;51.340;12.432;2023-03-04T05:56:13;100452.75;;;5.96;62.24
61136;BME280;47021;51.340;12.432;2023-03-04T05:58:42;100450.03;;;5.97;62.61
61136;BME280;47021;51.340;12.432;2023-03-04T06:01:08;100450.25;;;6.08;62.55
61136;BME280;47021;51.340;12.432;2023-03-04T06:03:35;100450.31;;;5.93;62.94
61136;BME280;47021;51.340;12.432;2023-03-04T06:08:33;100459.75;;;6.08;62.86
61136;BME280;47021;51.340;12.432;2023-03-04T06:10:58;100462.34;;;6.08;62.35
61136;BME280;47021;51.340;12.432;2023-03-04T06:16:26;100463.69;;;6.57;61.67
61136;BME280;47021;51.340;12.432;2023-03-04T06:19:06;100471.72;;;6.10;62.33
61136;BME280;47021;51.340;12.432;2023-03-04T06:21:43;100473.97;;;6.45;61.96
61136;BME280;47021;51.340;12.432;2023-03-04T06:24:08;100467.66;;;6.49;61.20
61136;BME280;47021;51.340;12.432;2023-03-04T06:26:45;100473.69;;;6.35;61.73
61136;BME280;47021;51.340;12.432;2023-03-04T06:29:19;100469.97;;;6.67;61.34
61136;BME280;47021;51.340;12.432;2023-03-04T06:31:45;100466.63;;;6.79;60.61
61136;BME280;47021;51.340;12.432;2023-03-04T06:36:54;100481.56;;;5.90;62.82
61136;BME280;47021;51.340;12.432;2023-03-04T06:39:32;100473.94;;;6.30;62.10
61136;BME280;47021;51.340;12.432;2023-03-04T06:41:58;100475.53;;;6.33;62.46
61136;BME280;47021;51.340;12.432;2023-03-04T06:44:23;100481.53;;;6.19;62.19
61136;BME280;47021;51.340;12.432;2023-03-04T06:46:50;100475.34;;;6.22;62.53
61136;BME280;47021;51.340;12.432;2023-03-04T06:49:28;100464.69;;;6.26;62.62
61136;BME280;47021;51.340;12.432;2023-03-04T06:52:08;100472.03;;;6.34;62.46
61136;BME280;47021;51.340;12.432;2023-03-04T06:54:47;100478.56;;;5.97;63.13
61136;BME280;47021;51.340;12.432;2023-03-04T06:57:18;100477.03;;;6.37;62.59
61136;BME280;47021;51.340;12.432;2023-03-04T06:59:44;100464.06;;;6.37;62.86
61136;BME280;47021;51.340;12.432;2023-03-04T07:02:10;100465.94;;;6.90;61.11
61136;BME280;47021;51.340;12.432;2023-03-04T07:04:37;100465.06;;;6.49;61.94
61136;BME280;47021;51.340;12.432;2023-03-04T07:07:16;100466.06;;;6.60;61.92
61136;BME280;47021;51.340;12.432;2023-03-04T07:09:52;100468.78;;;6.59;62.52
61136;BME280;47021;51.340;12.432;2023-03-04T07:15:20;100467.75;;;6.47;62.28
61136;BME280;47021;51.340;12.432;2023-03-04T07:37:38;100486.84;;;6.46;64.20
61136;BME280;47021;51.340;12.432;2023-03-04T07:40:20;100478.41;;;6.28;64.64
61136;BME280;47021;51.340;12.432;2023-03-04T07:43:01;100488.97;;;6.68;63.79
61136;BME280;47021;51.340;12.432;2023-03-04T07:45:39;100487.03;;;6.43;65.12
61136;BME280;47021;51.340;12.432;2023-03-04T07:48:27;100480.16;;;6.70;63.92
61136;BME280;47021;51.340;12.432;2023-03-04T07:51:07;100479.16;;;6.59;64.23
61136;BME280;47021;51.340;12.432;2023-03-04T07:53:33;100476.72;;;6.70;64.26
61136;BME280;47021;51.340;12.432;2023-03-04T07:56:11;100469.47;;;6.89;63.34
61136;BME280;47021;51.340;12.432;2023-03-04T08:01:36;100475.88;;;6.69;63.96
61136;BME280;47021;51.340;12.432;2023-03-04T08:04:08;100472.38;;;6.70;64.03
61136;BME280;47021;51.340;12.432;2023-03-04T08:06:49;100475.22;;;6.94;64.32
61136;BME280;47021;51.340;12.432;2023-03-04T08:09:24;100475.66;;;7.15;63.61
61136;BME280;47021;51.340;12.432;2023-03-04T08:14:34;100459.59;;;6.67;65.27
61136;BME280;47021;51.340;12.432;2023-03-04T08:19:49;100458.28;;;7.42;63.73
61136;BME280;47021;51.340;12.432;2023-03-04T08:22:15;100464.38;;;7.28;63.94
61136;BME280;47021;51.340;12.432;2023-03-04T08:24:46;100462.13;;;7.09;64.13
61136;BME280;47021;51.340;12.432;2023-03-04T08:27:20;100458.84;;;6.65;65.61
61136;BME280;47021;51.340;12.432;2023-03-04T08:29:46;100457.47;;;6.74;65.87
61136;BME280;47021;51.340;12.432;2023-03-04T08:32:20;100469.59;;;6.73;66.36
61136;BME280;47021;51.340;12.432;2023-03-04T08:34:50;100448.66;;;7.56;64.30
61136;BME280;47021;51.340;12.432;2023-03-04T08:37:30;100438.31;;;7.69;63.21
61136;BME280;47021;51.340;12.432;2023-03-04T08:42:57;100430.91;;;7.63;64.19
61136;BME280;47021;51.340;12.432;2023-03-04T08:45:28;100443.00;;;7.89;63.50
61136;BME280;47021;51.340;12.432;2023-03-04T08:47:53;100447.06;;;7.41;64.30
61136;BME280;47021;51.340;12.432;2023-03-04T08:58:30;100424.41;;;8.20;61.74
61136;BME280;47021;51.340;12.432;2023-03-04T09:00:57;100449.09;;;7.24;64.12
61136;BME280;47021;51.340;12.432;2023-03-04T09:03:32;100446.03;;;7.44;63.98
61136;BME280;47021;51.340;12.432;2023-03-04T09:06:15;100442.69;;;7.15;64.26
61136;BME280;47021;51.340;12.432;2023-03-04T09:11:29;100423.03;;;7.90;62.86
61136;BME280;47021;51.340;12.432;2023-03-04T09:16:51;100419.81;;;7.99;62.27
61136;BME280;47021;51.340;12.432;2023-03-04T09:27:40;100427.00;;;8.08;62.39
61136;BME280;47021;51.340;12.432;2023-03-04T09:52:48;100425.53;;;8.41;61.29
61136;BME280;47021;51.340;12.432;2023-03-04T09:55:33;100403.44;;;8.72;60.13
61136;BME280;47021;51.340;12.432;2023-03-04T10:05:37;100408.88;;;8.19;61.43
61136;BME280;47021;51.340;12.432;2023-03-04T10:13:30;100398.00;;;8.75;59.96
61136;BME280;47021;51.340;12.432;2023-03-04T10:16:00;100402.31;;;8.64;60.26
61136;BME280;47021;51.340;12.432;2023-03-04T10:29:30;100392.13;;;8.48;60.69
61136;BME280;47021;51.340;12.432;2023-03-04T10:31:56;100406.09;;;8.83;59.97
61136;BME280;47021;51.340;12.432;2023-03-04T10:34:22;100394.97;;;8.07;61.93
61136;BME280;47021;51.340;12.432;2023-03-04T10:44:56;100392.69;;;8.15;62.48
61136;BME280;47021;51.340;12.432;2023-03-04T10:47:24;100391.81;;;8.52;61.06
61136;BME280;47021;51.340;12.432;2023-03-04T10:49:55;100391.31;;;8.22;62.34
61136;BME280;47021;51.340;12.432;2023-03-04T10:52:27;100391.59;;;8.56;61.35
61136;BME280;47021;51.340;12.432;2023-03-04T10:57:38;100384.75;;;8.55;61.31
61136;BME280;47021;51.340;12.432;2023-03-04T11:00:27;100385.72;;;8.77;60.57
61136;BME280;47021;51.340;12.432;2023-03-04T11:02:50;100382.38;;;8.75;60.86
61136;BME280;47021;51.340;12.432;2023-03-04T11:10:38;100371.25;;;8.97;60.87
61136;BME280;47021;51.340;12.432;2023-03-04T11:13:16;100374.84;;;9.07;60.60
61136;BME280;47021;51.340;12.432;2023-03-04T11:15:57;100365.28;;;9.07;60.76
61136;BME280;47021;51.340;12.432;2023-03-04T11:18:39;100364.41;;;9.31;60.03
61136;BME280;47021;51.340;12.432;2023-03-04T11:21:24;100358.94;;;9.22;60.04
61136;BME280;47021;51.340;12.432;2023-03-04T11:23:52;100364.16;;;9.68;58.90
61136;BME280;47021;51.340;12.432;2023-03-04T11:26:41;100364.44;;;8.83;60.97
61136;BME280;47021;51.340;12.432;2023-03-04T11:29:12;100364.88;;;9.01;60.55
61136;BME280;47021;51.340;12.432;2023-03-04T11:34:40;100363.16;;;8.65;61.21
61136;BME280;47021;51.340;12.432;2023-03-04T11:45:02;100387.81;;;8.60;60.49
61136;BME280;47021;51.340;12.432;2023-03-04T11:56:14;100354.22;;;9.28;58.26
61136;BME280;47021;51.340;12.432;2023-03-04T14:17:45;100275.81;;;8.61;60.73
61136;BME280;47021;51.340;12.432;2023-03-04T14:20:31;100271.22;;;8.65;59.76
61136;BME280;47021;51.340;12.432;2023-03-04T14:25:42;100256.56;;;8.98;58.41
61136;BME280;47021;51.340;12.432;2023-03-04T14:30:55;100266.06;;;9.10;58.37
61136;BME280;47021;51.340;12.432;2023-03-04T14:33:24;100258.69;;;9.61;57.25
61136;BME280;47021;51.340;12.432;2023-03-04T14:35:59;100257.84;;;9.39;57.43
61136;BME280;47021;51.340;12.432;2023-03-04T14:38:31;100255.31;;;9.26;57.63
61136;BME280;47021;51.340;12.432;2023-03-04T14:44:01;100251.38;;;9.09;55.90
61136;BME280;47021;51.340;12.432;2023-03-04T14:46:22;100247.03;;;9.21;55.07
61136;BME280;47021;51.340;12.432;2023-03-04T14:51:56;100254.44;;;9.14;55.71
61136;BME280;47021;51.340;12.432;2023-03-04T14:54:42;100264.09;;;8.90;57.08
61136;BME280;47021;51.340;12.432;2023-03-04T14:57:25;100272.00;;;8.78;58.39
61136;BME280;47021;51.340;12.432;2023-03-04T15:02:55;100242.53;;;8.53;60.78
61136;BME280;47021;51.340;12.432;2023-03-04T15:05:27;100261.41;;;8.44;60.41
61136;BME280;47021;51.340;12.432;2023-03-04T15:08:17;100242.47;;;9.01;59.11
61136;BME280;47021;51.340;12.432;2023-03-04T15:16:12;100253.28;;;8.73;57.46
61136;BME280;47021;51.340;12.432;2023-03-04T15:21:41;100236.78;;;8.61;57.89
61136;BME280;47021;51.340;12.432;2023-03-04T15:24:21;100243.09;;;8.70;57.97
61136;BME280;47021;51.340;12.432;2023-03-04T15:26:52;100234.25;;;8.83;57.55
61136;BME280;47021;51.340;12.432;2023-03-04T15:29:36;100239.88;;;8.66;57.43
61136;BME280;47021;51.340;12.432;2023-03-04T15:32:01;100227.84;;;8.76;57.49
61136;BME280;47021;51.340;12.432;2023-03-04T15:34:32;100233.50;;;8.70;57.76
61136;BME280;47021;51.340;12.432;2023-03-04T15:37:41;100237.13;;;8.57;57.60
61136;BME280;47021;51.340;12.432;2023-03-04T15:43:15;100244.94;;;8.91;58.05
61136;BME280;47021;51.340;12.432;2023-03-04T15:45:40;100247.13;;;8.74;59.24
61136;BME280;47021;51.340;12.432;2023-03-04T15:48:13;100247.69;;;8.66;59.88
61136;BME280;47021;51.340;12.432;2023-03-04T15:51:01;100245.91;;;9.01;59.39
61136;BME280;47021;51.340;12.432;2023-03-04T15:56:14;100250.41;;;8.99;59.90
61136;BME280;47021;51.340;12.432;2023-03-04T15:58:42;100240.78;;;8.89;59.92
61136;BME280;47021;51.340;12.432;2023-03-04T16:03:51;100251.81;;;8.69;60.66
61136;BME280;47021;51.340;12.432;2023-03-04T16:06:17;100250.38;;;8.65;60.76
61136;BME280;47021;51.340;12.432;2023-03-04T16:08:50;100240.94;;;8.40;61.74
61136;BME280;47021;51.340;12.432;2023-03-04T16:11:17;100248.69;;;8.29;62.26
61136;BME280;47021;51.340;12.432;2023-03-04T16:16:38;100248.97;;;8.95;60.42
61136;BME280;47021;51.340;12.432;2023-03-04T16:19:18;100251.81;;;8.69;61.43
61136;BME280;47021;51.340;12.432;2023-03-04T16:22:02;100255.44;;;8.31;62.22
61136;BME280;47021;51.340;12.432;2023-03-04T16:24:44;100290.16;;;7.81;64.23
61136;BME280;47021;51.340;12.432;2023-03-04T16:27:26;100265.19;;;7.92;65.84
61136;BME280;47021;51.340;12.432;2023-03-04T16:29:51;100255.16;;;7.62;66.43
61136;BME280;47021;51.340;12.432;2023-03-04T16:32:23;100264.22;;;8.05;65.97
61136;BME280;47021;51.340;12.432;2023-03-04T16:35:19;100266.47;;;7.36;66.26
61136;BME280;47021;51.340;12.432;2023-03-04T16:37:47;100274.47;;;7.83;65.25
61136;BME280;47021;51.340;12.432;2023-03-04T16:40:27;100259.41;;;7.63;64.76
61136;BME280;47021;51.340;12.432;2023-03-04T16:42:58;100256.66;;;7.90;63.41
61136;BME280;47021;51.340;12.432;2023-03-04T16:45:26;100265.22;;;7.79;64.04
61136;BME280;47021;51.340;12.432;2023-03-04T16:48:04;100266.25;;;7.64;63.95
61136;BME280;47021;51.340;12.432;2023-03-04T16:50:30;100259.50;;;7.61;63.42
61136;BME280;47021;51.340;12.432;2023-03-04T16:52:57;100272.41;;;7.63;63.57
61136;BME280;47021;51.340;12.432;2023-03-04T16:55:39;100260.69;;;8.42;61.87
61136;BME280;47021;51.340;12.432;2023-03-04T16:58:20;100268.53;;;7.68;63.53
61136;BME280;47021;51.340;12.432;2023-03-04T17:00:54;100263.66;;;7.76;63.45
61136;BME280;47021;51.340;12.432;2023-03-04T17:03:20;100271.03;;;7.82;62.44
61136;BME280;47021;51.340;12.432;2023-03-04T17:05:50;100266.19;;;8.27;61.35
61136;BME280;47021;51.340;12.432;2023-03-04T17:08:21;100274.53;;;7.94;61.65
61136;BME280;47021;51.340;12.432;2023-03-04T17:13:43;100278.00;;;7.82;61.62
61136;BME280;47021;51.340;12.432;2023-03-04T17:16:12;100289.97;;;7.22;64.02
61136;BME280;47021;51.340;12.432;2023-03-04T17:18:39;100281.84;;;7.39;64.46
61136;BME280;47021;51.340;12.432;2023-03-04T17:21:06;100290.91;;;7.71;63.98
61136;BME280;47021;51.340;12.432;2023-03-04T17:23:35;100286.78;;;8.05;62.54
61136;BME280;47021;51.340;12.432;2023-03-04T17:26:16;100284.44;;;8.38;61.87
61136;BME280;47021;51.340;12.432;2023-03-04T17:28:50;100289.94;;;7.84;63.04
61136;BME280;47021;51.340;12.432;2023-03-04T17:31:18;100293.88;;;8.03;62.75
61136;BME280;47021;51.340;12.432;2023-03-04T17:34:14;100293.06;;;7.90;62.67
61136;BME280;47021;51.340;12.432;2023-03-04T17:36:55;100289.97;;;7.72;63.04
61136;BME280;47021;51.340;12.432;2023-03-04T18:13:17;100298.69;;;6.81;67.09
61136;BME280;47021;51.340;12.432;2023-03-04T18:18:29;100296.50;;;7.27;65.61
61136;BME280;47021;51.340;12.432;2023-03-04T18:20:58;100289.13;;;7.34;65.08
61136;BME280;47021;51.340;12.432;2023-03-04T18:23:25;100288.50;;;7.55;64.89
61136;BME280;47021;51.340;12.432;2023-03-04T18:25:51;100289.75;;;7.50;64.98
61136;BME280;47021;51.340;12.432;2023-03-04T18:28:22;100285.41;;;7.50;65.21
61136;BME280;47021;51.340;12.432;2023-03-04T18:33:32;100278.50;;;7.11;65.56
61136;BME280;47021;51.340;12.432;2023-03-04T18:36:12;100285.72;;;7.58;64.23
61136;BME280;47021;51.340;12.432;2023-03-04T18:38:44;100280.97;;;8.01;62.99
61136;BME280;47021;51.340;12.432;2023-03-04T18:41:10;100285.28;;;7.64;63.67
61136;BME280;47021;51.340;12.432;2023-03-04T18:43:41;100275.81;;;7.38;64.85
61136;BME280;47021;51.340;12.432;2023-03-04T18:49:09;100275.59;;;7.92;63.07
61136;BME280;47021;51.340;12.432;2023-03-04T19:00:02;100278.97;;;7.56;62.22
61136;BME280;47021;51.340;12.432;2023-03-04T19:13:37;100290.06;;;7.33;62.86
61136;BME280;47021;51.340;12.432;2023-03-04T19:18:53;100291.94;;;7.43;62.35
61136;BME280;47021;51.340;12.432;2023-03-04T19:21:20;100289.44;;;7.42;62.43
61136;BME280;47021;51.340;12.432;2023-03-04T19:23:45;100285.19;;;7.41;62.66
61136;BME280;47021;51.340;12.432;2023-03-04T19:26:19;100288.81;;;7.51;62.46
61136;BME280;47021;51.340;12.432;2023-03-04T19:28:54;100296.81;;;7.86;61.90
61136;BME280;47021;51.340;12.432;2023-03-04T19:31:32;100304.41;;;7.26;62.55
61136;BME280;47021;51.340;12.432;2023-03-04T19:39:44;100310.03;;;7.45;61.20
61136;BME280;47021;51.340;12.432;2023-03-04T19:42:09;100311.47;;;7.36;61.17
61136;BME280;47021;51.340;12.432;2023-03-04T19:44:37;100310.69;;;7.09;62.65
61136;BME280;47021;51.340;12.432;2023-03-04T19:50:01;100293.28;;;7.36;63.00
61136;BME280;47021;51.340;12.432;2023-03-04T19:57:57;100288.50;;;7.68;62.07
61136;BME280;47021;51.340;12.432;2023-03-04T20:00:28;100296.28;;;7.43;62.15
61136;BME280;47021;51.340;12.432;2023-03-04T20:08:36;100281.97;;;7.37;62.57
61136;BME280;47021;51.340;12.432;2023-03-04T20:11:05;100299.47;;;7.08;63.92
61136;BME280;47021;51.340;12.432;2023-03-04T20:13:30;100292.66;;;7.70;62.47
61136;BME280;47021;51.340;12.432;2023-03-04T20:16:12;100296.09;;;7.46;63.05
61136;BME280;47021;51.340;12.432;2023-03-04T20:19:02;100305.19;;;7.01;63.63
61136;BME280;47021;51.340;12.432;2023-03-04T20:21:28;100298.81;;;7.44;62.57
61136;BME280;47021;51.340;12.432;2023-03-04T20:23:54;100300.13;;;7.50;62.12
61136;BME280;47021;51.340;12.432;2023-03-04T20:26:21;100302.59;;;7.13;62.50
61136;BME280;47021;51.340;12.432;2023-03-04T20:28:49;100300.91;;;7.00;63.26
61136;BME280;47021;51.340;12.432;2023-03-04T20:31:28;100309.66;;;7.11;62.39
61136;BME280;47021;51.340;12.432;2023-03-04T20:34:00;100310.91;;;6.67;61.85
61136;BME280;47021;51.340;12.432;2023-03-04T20:36:26;100308.47;;;6.64;61.99